Time;durP1;ratioP1;P1;durP2;ratioP2;P2;SDS_P1;SDS_P2;PMS_P1;PMS_P2;Temp;Humidity;BMP_temperature;BMP_pressure;BME280_temperature;BME280_humidity;BME280_pressure;Samples;Min_cycle;Max_cycle;Signal;HPM_P1;HPM_P2
2022/02/27 00:00:33;;;;;;;24.00;13.45;;;;;;;10.82;36.65;95536.16;4950892;29;20211;-67
2022/02/27 00:03:01;;;;;;;25.15;14.15;;;;;;;10.64;37.61;95541.66;4951286;29;20200;-68
2022/02/27 00:05:28;;;;;;;25.85;14.38;;;;;;;10.63;37.25;95541.91;4949698;29;20199;-65
2022/02/27 00:07:56;;;;;;;20.33;13.15;;;;;;;10.34;37.63;95538.59;4950881;29;20208;-66
2022/02/27 00:10:23;;;;;;;26.83;14.20;;;;;;;10.43;37.46;95539.78;4950808;29;20220;-67
2022/02/27 00:12:50;;;;;;;22.95;13.32;;;;;;;11.06;36.78;95531.50;4951410;29;20251;-71
2022/02/27 00:15:17;;;;;;;22.40;12.55;;;;;;;10.46;36.95;95528.81;4950610;29;20235;-68
2022/02/27 00:17:44;;;;;;;24.90;12.80;;;;;;;10.28;37.78;95534.28;4950758;28;20713;-67
2022/02/27 00:20:12;;;;;;;21.30;12.25;;;;;;;10.79;36.57;95541.09;4950807;28;20238;-69
2022/02/27 00:22:40;;;;;;;26.48;13.68;;;;;;;10.55;36.81;95530.00;4950826;28;20252;-66
2022/02/27 00:25:07;;;;;;;23.05;13.57;;;;;;;10.84;36.66;95528.84;4932506;28;20199;-66
2022/02/27 00:27:36;;;;;;;24.23;13.50;;;;;;;10.57;36.86;95530.56;4950278;28;20650;-68
2022/02/27 00:30:06;;;;;;;22.17;12.65;;;;;;;10.90;36.92;95506.94;4948416;28;20227;-66
2022/02/27 00:32:34;;;;;;;25.25;12.43;;;;;;;11.02;36.06;95504.97;4950871;28;20199;-68
2022/02/27 00:35:02;;;;;;;20.55;12.85;;;;;;;11.07;35.99;95512.94;4949027;28;20201;-65
2022/02/27 00:37:29;;;;;;;22.48;12.98;;;;;;;10.73;37.09;95500.91;4933700;28;20236;-66
2022/02/27 00:39:56;;;;;;;22.38;12.10;;;;;;;10.80;36.22;95496.28;4932912;28;20675;-68
2022/02/27 00:42:23;;;;;;;19.38;12.60;;;;;;;10.70;36.65;95490.13;4934428;28;20259;-68
2022/02/27 00:44:51;;;;;;;20.35;12.23;;;;;;;10.75;36.33;95483.13;4936609;28;20204;-70
2022/02/27 00:47:21;;;;;;;19.88;12.55;;;;;;;10.71;36.45;95487.25;4937705;29;20195;-71
2022/02/27 00:49:49;;;;;;;18.85;12.20;;;;;;;10.32;37.58;95492.69;4954267;29;20211;-67
2022/02/27 00:52:22;;;;;;;24.42;14.13;;;;;;;10.93;37.04;95482.84;4954426;29;20242;-69
2022/02/27 00:54:50;;;;;;;21.55;13.15;;;;;;;11.00;36.35;95480.06;4937239;29;20687;-69
2022/02/27 00:57:18;;;;;;;25.90;13.63;;;;;;;11.02;36.86;95467.50;4954885;29;20203;-69
2022/02/27 00:59:45;;;;;;;23.52;13.80;;;;;;;10.63;37.50;95471.97;4954678;29;20196;-70
2022/02/27 01:02:12;;;;;;;22.17;13.40;;;;;;;10.81;36.78;95466.44;4955208;29;20203;-67
2022/02/27 01:04:40;;;;;;;21.30;13.68;;;;;;;11.11;36.66;95460.78;4954423;29;20215;-66
2022/02/27 01:07:07;;;;;;;24.48;14.10;;;;;;;10.83;37.24;95469.59;4954542;29;20192;-65
2022/02/27 01:09:34;;;;;;;22.95;14.00;;;;;;;10.93;36.73;95461.84;4954213;29;20659;-65
2022/02/27 01:12:01;;;;;;;24.33;14.82;;;;;;;11.26;36.52;95468.81;4937150;29;20590;-69
2022/02/27 01:14:28;;;;;;;32.78;14.02;;;;;;;11.05;36.94;95477.47;4956111;29;20232;-68
2022/02/27 01:16:56;;;;;;;24.90;14.10;;;;;;;10.60;37.11;95480.28;4937529;29;20210;-70
2022/02/27 01:19:24;;;;;;;22.27;14.13;;;;;;;11.00;36.56;95483.44;4937324;29;20196;-66
2022/02/27 01:21:53;;;;;;;23.67;14.48;;;;;;;10.69;37.10;95486.69;4936930;29;20226;-68
2022/02/27 01:24:20;;;;;;;23.70;15.38;;;;;;;10.95;37.09;95478.16;4953902;29;20530;-66
2022/02/27 01:26:47;;;;;;;21.60;15.30;;;;;;;11.13;36.45;95480.47;4954484;29;20196;-67
2022/02/27 01:29:14;;;;;;;25.67;15.57;;;;;;;10.76;36.97;95469.00;4936555;29;20262;-68
2022/02/27 01:31:41;;;;;;;25.17;16.77;;;;;;;10.31;38.33;95497.16;4954382;29;20230;-70
2022/02/27 01:34:09;;;;;;;28.33;17.27;;;;;;;10.83;36.89;95495.81;4953581;29;20207;-67
2022/02/27 01:36:36;;;;;;;24.08;16.60;;;;;;;10.72;37.32;95499.34;4954424;29;20223;-72
2022/02/27 01:39:03;;;;;;;24.50;16.13;;;;;;;10.07;38.56;95485.22;4953746;29;20195;-66
2022/02/27 01:41:30;;;;;;;25.83;17.10;;;;;;;10.94;36.81;95471.31;4954248;29;20220;-65
2022/02/27 01:43:57;;;;;;;28.05;17.77;;;;;;;10.48;38.38;95471.72;4936423;29;20203;-66
2022/02/27 01:46:24;;;;;;;26.05;16.25;;;;;;;10.18;38.30;95466.81;4953535;29;20227;-67
2022/02/27 01:48:51;;;;;;;24.40;14.85;;;;;;;10.15;38.13;95469.13;4936316;29;20192;-66
2022/02/27 01:51:18;;;;;;;22.55;15.20;;;;;;;10.53;38.36;95469.19;4954190;29;20224;-70
2022/02/27 01:53:45;;;;;;;23.35;15.27;;;;;;;10.34;38.17;95465.25;4953219;28;20219;-73
2022/02/27 01:56:17;;;;;;;23.88;14.52;;;;;;;10.61;37.62;95466.16;4953882;29;20200;-64
2022/02/27 01:58:45;;;;;;;22.88;13.88;;;;;;;10.07;38.52;95475.53;4935130;29;20639;-67
2022/02/27 02:01:11;;;;;;;20.17;13.55;;;;;;;10.79;36.92;95463.25;4952394;29;20287;-69
2022/02/27 02:03:39;;;;;;;19.63;14.15;;;;;;;10.73;37.67;95463.44;4935816;29;20204;-66
2022/02/27 02:06:06;;;;;;;24.05;14.48;;;;;;;10.18;38.00;95455.59;4953965;29;20196;-67
2022/02/27 02:08:33;;;;;;;22.00;13.77;;;;;;;10.27;38.20;95448.91;4953021;29;20204;-65
2022/02/27 02:11:04;;;;;;;22.13;13.13;;;;;;;9.93;38.38;95465.59;4935922;29;20777;-71
2022/02/27 02:13:33;;;;;;;23.05;14.27;;;;;;;10.31;38.50;95481.41;4951941;29;20202;-68
2022/02/27 02:16:00;;;;;;;23.15;14.20;;;;;;;10.53;37.99;95495.38;4952236;29;20188;-65
2022/02/27 02:18:32;;;;;;;25.20;13.10;;;;;;;10.05;38.98;95487.28;4951551;29;20200;-66
2022/02/27 02:20:59;;;;;;;26.90;13.18;;;;;;;9.69;38.75;95474.63;4935608;29;20214;-63
2022/02/27 02:23:26;;;;;;;25.15;13.50;;;;;;;10.00;38.44;95464.41;4951492;29;20668;-65
2022/02/27 02:25:53;;;;;;;23.17;12.65;;;;;;;10.08;38.88;95447.53;4935579;29;20196;-68
2022/02/27 02:28:21;;;;;;;21.55;13.88;;;;;;;9.90;38.31;95439.91;4935081;29;20204;-69
2022/02/27 02:30:50;;;;;;;22.55;13.18;;;;;;;9.63;39.35;95421.41;4934786;29;20228;-66
2022/02/27 02:33:17;;;;;;;19.85;12.27;;;;;;;9.78;38.40;95392.09;4936021;29;20191;-67
2022/02/27 02:35:45;;;;;;;24.17;13.10;;;;;;;9.90;38.67;95405.88;4952559;29;20208;-63
2022/02/27 02:38:11;;;;;;;22.63;12.23;;;;;;;9.39;39.22;95432.22;4935844;29;20204;-66
2022/02/27 02:40:38;;;;;;;26.20;13.68;;;;;;;9.43;39.91;95435.97;4951535;29;20197;-70
2022/02/27 02:43:06;;;;;;;21.98;13.75;;;;;;;10.17;38.25;95461.84;4953162;29;20215;-67
2022/02/27 02:45:33;;;;;;;22.08;13.27;;;;;;;9.75;38.84;95465.81;4935369;29;20588;-67
2022/02/27 02:48:00;;;;;;;20.65;12.77;;;;;;;9.76;38.71;95504.06;4935326;29;20302;-70
2022/02/27 02:50:29;;;;;;;19.83;12.70;;;;;;;9.54;39.22;95506.56;4934495;29;20308;-63
2022/02/27 02:52:57;;;;;;;23.90;13.57;;;;;;;9.67;39.14;95521.16;4935272;29;20809;-68
2022/02/27 02:55:24;;;;;;;22.80;13.95;;;;;;;10.05;38.25;95518.69;4934655;29;20222;-66
2022/02/27 02:57:51;;;;;;;20.27;13.65;;;;;;;10.10;38.05;95510.97;4952686;29;20199;-64
2022/02/27 03:00:18;;;;;;;28.38;13.52;;;;;;;10.08;38.77;95507.75;4951767;29;20188;-68
2022/02/27 03:02:45;;;;;;;26.52;14.90;;;;;;;9.94;38.45;95493.38;4952591;29;20195;-65
2022/02/27 03:05:12;;;;;;;20.63;13.30;;;;;;;9.81;39.71;95501.53;4934033;29;20599;-65
2022/02/27 03:07:39;;;;;;;20.05;13.88;;;;;;;10.55;38.14;95493.31;4952962;29;20262;-67
2022/02/27 03:10:08;;;;;;;25.88;14.82;;;;;;;10.51;37.89;95491.44;4952117;29;20395;-65
2022/02/27 03:12:37;;;;;;;26.80;16.17;;;;;;;10.05;38.67;95498.53;4954259;29;20196;-68
2022/02/27 03:15:07;;;;;;;25.83;14.98;;;;;;;10.06;39.71;95504.56;4952317;29;20235;-67
2022/02/27 03:17:34;;;;;;;25.48;15.05;;;;;;;9.87;39.54;95518.91;4952640;29;20211;-70
2022/02/27 03:20:01;;;;;;;24.02;15.80;;;;;;;9.51;40.19;95524.50;4952052;29;20196;-67
2022/02/27 03:22:28;;;;;;;24.88;14.32;;;;;;;9.83;40.01;95517.78;4951346;29;20235;-67
2022/02/27 03:24:55;;;;;;;24.65;15.18;;;;;;;9.95;39.78;95529.78;4951294;29;20196;-68
2022/02/27 03:27:21;;;;;;;22.73;14.90;;;;;;;9.65;40.12;95524.00;4950902;29;20271;-65
2022/02/27 03:29:48;;;;;;;24.52;14.90;;;;;;;10.15;39.68;95527.53;4951507;29;20203;-63
2022/02/27 03:32:15;;;;;;;24.90;15.18;;;;;;;10.19;39.63;95522.63;4951951;29;20227;-67
2022/02/27 03:34:43;;;;;;;25.08;14.90;;;;;;;10.00;39.55;95505.50;4951818;29;20195;-68
2022/02/27 03:37:09;;;;;;;23.83;14.65;;;;;;;10.19;39.15;95488.59;4951664;29;20275;-67
2022/02/27 03:39:36;;;;;;;26.45;15.65;;;;;;;10.55;38.42;95509.03;4951887;29;20192;-65
2022/02/27 03:42:03;;;;;;;26.38;15.25;;;;;;;10.42;39.44;95509.38;4952095;29;20219;-66
2022/02/27 03:44:30;;;;;;;28.23;15.32;;;;;;;10.47;38.78;95506.03;4951337;29;20196;-70
2022/02/27 03:46:57;;;;;;;26.65;15.30;;;;;;;10.59;38.57;95504.91;4952049;29;20235;-67
2022/02/27 03:49:24;;;;;;;24.30;15.30;;;;;;;10.20;40.19;95503.25;4951879;29;20200;-64
2022/02/27 03:51:51;;;;;;;28.73;15.55;;;;;;;10.68;39.16;95503.47;4951964;29;20279;-68
2022/02/27 03:54:19;;;;;;;29.15;16.20;;;;;;;10.20;39.52;95506.66;4951782;29;20195;-65
2022/02/27 03:56:46;;;;;;;29.95;16.98;;;;;;;9.50;41.54;95509.84;4952372;29;20204;-66
2022/02/27 03:59:15;;;;;;;29.20;16.75;;;;;;;9.48;42.27;95511.91;4950822;29;20203;-68
2022/02/27 04:01:42;;;;;;;29.67;16.77;;;;;;;9.53;42.76;95498.91;4951623;29;20680;-67
2022/02/27 04:04:09;;;;;;;26.20;15.70;;;;;;;9.98;42.04;95510.22;4951698;29;20195;-71
2022/02/27 04:06:36;;;;;;;25.63;15.82;;;;;;;9.85;41.96;95486.94;4951762;29;20200;-66
2022/02/27 04:09:03;;;;;;;27.70;16.45;;;;;;;10.22;41.49;95464.53;4951437;29;20192;-68
2022/02/27 04:11:30;;;;;;;28.02;15.95;;;;;;;10.39;41.31;95488.91;4953439;29;20247;-66
2022/02/27 04:13:57;;;;;;;28.50;16.85;;;;;;;9.76;42.10;95496.97;4951974;29;20227;-69
2022/02/27 04:16:24;;;;;;;27.23;16.52;;;;;;;9.86;41.62;95501.59;4951073;28;20203;-68
2022/02/27 04:18:51;;;;;;;29.05;17.15;;;;;;;9.53;42.71;95498.91;4950826;29;20242;-68
2022/02/27 04:21:18;;;;;;;27.30;16.67;;;;;;;9.61;41.85;95515.06;4951382;29;20219;-69
2022/02/27 04:23:45;;;;;;;27.67;16.42;;;;;;;9.62;41.96;95518.44;4951216;29;20344;-65
2022/02/27 04:26:12;;;;;;;29.40;17.00;;;;;;;9.46;42.68;95521.81;4950305;29;20196;-66
2022/02/27 04:28:38;;;;;;;26.58;16.40;;;;;;;9.47;42.46;95515.56;4950448;29;20644;-71
2022/02/27 04:31:05;;;;;;;30.77;17.80;;;;;;;9.01;43.90;95516.47;4950820;29;20255;-72
2022/02/27 04:33:32;;;;;;;30.85;16.50;;;;;;;9.33;42.69;95524.69;4950758;29;20339;-71
2022/02/27 04:35:59;;;;;;;27.02;16.02;;;;;;;9.58;42.79;95520.72;4951057;29;20275;-65
2022/02/27 04:38:28;;;;;;;25.85;16.45;;;;;;;9.40;43.39;95520.13;4934051;29;20340;-70
2022/02/27 04:40:55;;;;;;;31.48;17.08;;;;;;;9.36;43.35;95530.25;4950733;29;20289;-69
2022/02/27 04:43:21;;;;;;;30.20;18.00;;;;;;;9.55;43.69;95528.25;4951258;29;20314;-69
2022/02/27 04:45:48;;;;;;;31.88;17.50;;;;;;;9.32;43.85;95536.19;4950467;29;20612;-71
2022/02/27 04:48:16;;;;;;;30.00;17.92;;;;;;;9.60;43.83;95521.28;4950996;29;20192;-69
2022/02/27 04:50:42;;;;;;;27.30;16.80;;;;;;;9.59;42.88;95517.09;4950669;29;20210;-71
2022/02/27 04:53:10;;;;;;;29.50;17.85;;;;;;;9.58;43.94;95512.09;4951073;29;20211;-67
2022/02/27 04:55:37;;;;;;;31.25;17.48;;;;;;;9.88;43.22;95510.81;4951126;29;20598;-68
2022/02/27 04:58:04;;;;;;;31.58;18.13;;;;;;;9.97;43.61;95512.03;4950998;29;20552;-68
2022/02/27 05:00:32;;;;;;;31.05;18.05;;;;;;;9.82;43.41;95503.09;4950920;29;20200;-68
2022/02/27 05:02:59;;;;;;;31.00;17.77;;;;;;;9.78;43.82;95496.78;4951576;29;20214;-67
2022/02/27 05:05:26;;;;;;;30.83;18.50;;;;;;;8.81;46.35;95490.69;4950491;29;20216;-67
2022/02/27 05:07:53;;;;;;;33.65;19.50;;;;;;;9.44;45.36;95495.09;4953055;29;20216;-69
2022/02/27 05:10:21;;;;;;;32.22;19.27;;;;;;;9.50;45.65;95502.00;4950402;29;20576;-67
2022/02/27 05:12:48;;;;;;;33.58;19.02;;;;;;;9.76;45.10;95504.06;4951574;29;20251;-66
2022/02/27 05:15:14;;;;;;;31.25;19.05;;;;;;;9.77;45.03;95506.44;4932824;29;20263;-69
2022/02/27 05:17:41;;;;;;;32.38;19.65;;;;;;;9.82;45.74;95519.59;4950459;29;20287;-66
2022/02/27 05:20:09;;;;;;;29.77;19.02;;;;;;;9.56;45.84;95522.00;4950503;29;20204;-67
2022/02/27 05:22:44;;;;;;;31.25;19.02;;;;;;;9.61;46.72;95522.09;4953073;29;20192;-65
2022/02/27 05:25:12;;;;;;;32.58;20.15;;;;;;;9.45;46.72;95515.78;4956156;29;20258;-69
2022/02/27 05:27:40;;;;;;;34.80;20.48;;;;;;;9.97;46.14;95519.06;4956188;28;20220;-68
2022/02/27 05:30:07;;;;;;;31.08;20.30;;;;;;;9.39;46.96;95510.69;4965496;29;20192;-67
2022/02/27 05:32:34;;;;;;;33.97;19.80;;;;;;;9.56;46.99;95533.25;4963114;29;20323;-66
2022/02/27 05:35:01;;;;;;;34.83;20.85;;;;;;;9.09;48.08;95535.22;4962513;29;20204;-71
2022/02/27 05:37:28;;;;;;;31.90;20.00;;;;;;;8.76;48.83;95534.22;4963038;29;20187;-65
2022/02/27 05:39:55;;;;;;;32.10;20.50;;;;;;;8.96;48.77;95519.75;4963909;29;20227;-68
2022/02/27 05:42:22;;;;;;;34.95;20.52;;;;;;;9.05;49.27;95507.16;4956192;29;20207;-65
2022/02/27 05:44:49;;;;;;;32.08;19.85;;;;;;;9.54;47.35;95513.59;4953080;29;20200;-68
2022/02/27 05:47:16;;;;;;;35.05;20.40;;;;;;;9.33;48.37;95520.25;4953993;29;20275;-68
2022/02/27 05:49:43;;;;;;;32.90;21.42;;;;;;;9.49;47.30;95508.28;4953927;29;20251;-68
2022/02/27 05:52:10;;;;;;;31.25;19.70;;;;;;;9.43;47.55;95498.75;4953675;29;20290;-65
2022/02/27 05:54:37;;;;;;;32.17;19.85;;;;;;;9.57;47.78;95510.50;4953858;29;20251;-69
2022/02/27 05:57:04;;;;;;;30.92;19.25;;;;;;;9.62;47.05;95514.00;4952741;29;20274;-67
2022/02/27 05:59:31;;;;;;;26.85;18.75;;;;;;;9.35;47.88;95520.81;4954102;29;20635;-67
2022/02/27 06:01:58;;;;;;;31.38;18.33;;;;;;;9.28;48.57;95522.78;4954058;29;20668;-68
2022/02/27 06:04:25;;;;;;;31.08;18.23;;;;;;;9.08;48.62;95533.63;4952908;29;21021;-69
2022/02/27 06:06:55;;;;;;;28.40;18.17;;;;;;;9.25;48.67;95532.91;4954234;29;20208;-72
2022/02/27 06:09:21;;;;;;;30.05;18.20;;;;;;;9.28;48.34;95524.59;4953811;29;20259;-73
2022/02/27 06:11:48;;;;;;;29.55;17.83;;;;;;;9.05;49.20;95518.38;4953599;29;20226;-68
2022/02/27 06:14:15;;;;;;;29.27;18.60;;;;;;;8.93;50.27;95528.06;4952912;29;20813;-72
2022/02/27 06:16:42;;;;;;;31.45;18.95;;;;;;;8.93;49.56;95540.34;4953855;29;20682;-69
2022/02/27 06:19:09;;;;;;;31.13;19.45;;;;;;;8.82;49.39;95538.53;4959104;29;20560;-73
2022/02/27 06:21:36;;;;;;;30.00;18.88;;;;;;;9.07;49.35;95555.56;4960118;29;20203;-72
2022/02/27 06:24:03;;;;;;;30.60;19.70;;;;;;;9.29;49.09;95560.19;4960376;29;20192;-72
2022/02/27 06:26:32;;;;;;;30.58;17.77;;;;;;;9.50;48.61;95554.31;4958187;29;20699;-70
2022/02/27 06:29:02;;;;;;;27.58;18.10;;;;;;;9.56;49.02;95533.25;4953266;29;20271;-72
2022/02/27 06:31:33;;;;;;;27.40;17.77;;;;;;;9.39;48.41;95523.75;4952609;29;20220;-68
2022/02/27 06:34:03;;;;;;;28.02;18.58;;;;;;;9.24;49.24;95532.09;4953541;29;20196;-72
2022/02/27 06:36:30;;;;;;;27.17;18.42;;;;;;;9.23;49.73;95536.53;4953545;29;20251;-73
2022/02/27 06:38:57;;;;;;;28.25;18.52;;;;;;;9.23;49.34;95533.91;4953015;28;20580;-69
2022/02/27 06:41:24;;;;;;;28.73;17.45;;;;;;;9.41;48.94;95534.78;4952333;29;20663;-71
2022/02/27 06:43:51;;;;;;;25.58;16.63;;;;;;;9.19;49.53;95530.19;4952464;29;20287;-73
2022/02/27 06:46:22;;;;;;;25.52;16.70;;;;;;;9.57;48.42;95536.66;4953255;29;20211;-71
2022/02/27 06:48:49;;;;;;;24.65;17.15;;;;;;;8.93;50.23;95530.69;4952978;29;20254;-70
2022/02/27 06:51:16;;;;;;;27.52;17.02;;;;;;;8.72;50.44;95528.66;4952675;29;20699;-70
2022/02/27 06:53:43;;;;;;;25.77;17.35;;;;;;;9.02;50.02;95539.75;4952330;29;20595;-70
2022/02/27 06:56:10;;;;;;;27.52;17.00;;;;;;;9.56;49.31;95535.09;4952722;29;20207;-71
2022/02/27 06:58:38;;;;;;;25.67;17.00;;;;;;;9.42;49.75;95531.13;4952713;29;20195;-71
2022/02/27 07:01:05;;;;;;;29.00;16.25;;;;;;;9.85;47.99;95540.06;4952030;29;20625;-70
2022/02/27 07:03:32;;;;;;;27.33;17.17;;;;;;;9.62;48.49;95549.84;4951954;29;20263;-69
2022/02/27 07:05:59;;;;;;;28.98;18.55;;;;;;;9.49;48.57;95521.34;4957031;29;20196;-71
2022/02/27 07:08:27;;;;;;;25.23;16.85;;;;;;;9.73;48.97;95533.28;4956557;29;20195;-72
2022/02/27 07:10:54;;;;;;;30.40;17.67;;;;;;;9.81;48.12;95522.47;4952202;29;20624;-70
2022/02/27 07:13:21;;;;;;;27.98;18.17;;;;;;;9.53;49.48;95541.56;4952619;29;20227;-69
2022/02/27 07:15:48;;;;;;;47.33;29.65;;;;;;;8.94;51.12;95547.94;4951842;29;20255;-67
2022/02/27 07:18:15;;;;;;;47.85;29.48;;;;;;;9.07;50.31;95542.47;4952476;29;20653;-73
2022/02/27 07:20:42;;;;;;;102.65;64.72;;;;;;;8.93;50.54;95541.16;4952204;29;20757;-71
2022/02/27 07:23:09;;;;;;;32.17;20.60;;;;;;;9.29;50.05;95539.28;4952384;29;20203;-67
2022/02/27 07:25:35;;;;;;;30.05;19.50;;;;;;;9.26;50.24;95539.72;4951711;29;20702;-75
2022/02/27 07:28:02;;;;;;;30.60;19.67;;;;;;;9.38;49.72;95528.19;4952136;29;20188;-68
2022/02/27 07:30:29;;;;;;;30.05;20.27;;;;;;;9.08;50.62;95528.41;4950897;29;20192;-71
2022/02/27 07:32:56;;;;;;;33.97;20.30;;;;;;;9.21;50.42;95507.19;4918924;29;20247;-70
2022/02/27 07:35:23;;;;;;;30.63;19.88;;;;;;;9.49;50.19;95529.22;4951414;29;20275;-71
2022/02/27 07:37:50;;;;;;;30.55;19.65;;;;;;;9.45;50.67;95534.09;4952051;29;20199;-74
2022/02/27 07:40:17;;;;;;;31.13;20.02;;;;;;;9.09;50.28;95519.53;4951679;29;20184;-69
2022/02/27 07:42:44;;;;;;;28.08;18.95;;;;;;;9.34;49.83;95528.91;4951811;29;20203;-71
2022/02/27 07:45:12;;;;;;;28.08;18.98;;;;;;;9.41;49.50;95532.19;4950774;29;20203;-72
2022/02/27 07:47:39;;;;;;;29.80;19.58;;;;;;;9.23;49.88;95541.75;4951285;29;20600;-73
2022/02/27 07:50:06;;;;;;;30.23;18.63;;;;;;;9.03;50.26;95537.94;4933435;29;20208;-73
2022/02/27 07:52:33;;;;;;;30.10;20.10;;;;;;;9.43;49.75;95540.59;4951219;28;20259;-72
2022/02/27 07:54:59;;;;;;;33.45;19.92;;;;;;;9.26;50.10;95530.06;4950864;29;20871;-71
2022/02/27 07:57:26;;;;;;;28.95;19.17;;;;;;;9.47;49.64;95524.19;4952235;29;20251;-72
2022/02/27 07:59:53;;;;;;;28.80;18.13;;;;;;;9.31;49.73;95524.13;4950626;29;20246;-71
2022/02/27 08:02:20;;;;;;;24.75;17.55;;;;;;;9.25;49.86;95518.03;4951533;29;20203;-74
2022/02/27 08:04:47;;;;;;;26.10;17.83;;;;;;;9.37;50.28;95517.97;4951654;29;20196;-74
2022/02/27 08:07:14;;;;;;;23.00;16.95;;;;;;;9.69;49.01;95524.34;4951838;29;20276;-69
2022/02/27 08:09:40;;;;;;;26.13;17.90;;;;;;;9.23;50.21;95515.63;4951318;29;20199;-71
2022/02/27 08:12:08;;;;;;;25.83;17.20;;;;;;;9.70;49.63;95547.66;4951397;29;20699;-71
2022/02/27 08:14:35;;;;;;;25.08;17.42;;;;;;;9.48;50.10;95543.28;4950917;29;20243;-71
2022/02/27 08:17:02;;;;;;;23.42;16.08;;;;;;;9.82;48.81;95558.88;4951014;29;20204;-72
2022/02/27 08:19:29;;;;;;;22.83;15.95;;;;;;;9.64;49.03;95553.00;4949787;28;20196;-72
2022/02/27 08:21:56;;;;;;;23.13;16.17;;;;;;;9.68;49.72;95554.16;4950430;28;20735;-70
2022/02/27 08:24:22;;;;;;;22.85;15.32;;;;;;;9.47;49.38;95536.50;4950265;28;20599;-71
2022/02/27 08:26:50;;;;;;;22.05;14.98;;;;;;;9.81;49.65;95553.88;4951123;28;20211;-73
2022/02/27 08:29:17;;;;;;;20.35;14.80;;;;;;;10.14;48.71;95546.13;4950288;28;20202;-73
2022/02/27 08:31:45;;;;;;;21.50;14.80;;;;;;;10.08;49.02;95534.72;4938207;28;20990;-76
2022/02/27 08:34:13;;;;;;;19.90;14.73;;;;;;;9.88;49.81;95533.59;4950231;28;20651;-69
2022/02/27 08:36:40;;;;;;;19.63;14.45;;;;;;;9.79;49.51;95529.75;4949757;28;20212;-69
2022/02/27 08:39:09;;;;;;;20.17;14.18;;;;;;;9.71;50.04;95522.28;4950083;28;20699;-73
2022/02/27 08:41:38;;;;;;;19.20;14.52;;;;;;;9.68;50.23;95527.97;4952619;28;20474;-70
2022/02/27 08:44:05;;;;;;;18.90;14.63;;;;;;;9.41;50.75;95517.28;4933930;29;20671;-69
2022/02/27 08:46:32;;;;;;;19.83;14.05;;;;;;;8.72;51.22;95501.75;4951430;28;20192;-72
2022/02/27 08:48:59;;;;;;;21.95;15.65;;;;;;;9.55;50.54;95496.84;4950042;28;20300;-72
2022/02/27 08:51:26;;;;;;;22.13;14.95;;;;;;;9.23;50.58;95520.84;4949720;28;20287;-73
2022/02/27 08:53:53;;;;;;;22.17;15.98;;;;;;;9.02;51.13;95508.41;4932832;28;20220;-70
2022/02/27 08:56:20;;;;;;;20.27;14.70;;;;;;;9.76;50.30;95511.91;4950241;28;20199;-71
2022/02/27 08:58:47;;;;;;;18.50;14.13;;;;;;;9.65;50.07;95528.47;4950920;28;20270;-73
2022/02/27 09:01:14;;;;;;;17.10;12.98;;;;;;;9.87;49.93;95521.53;4964589;28;20738;-71
2022/02/27 09:03:41;;;;;;;16.85;12.52;;;;;;;9.65;49.95;95518.00;4967775;28;20187;-71
2022/02/27 09:06:09;;;;;;;17.05;11.90;;;;;;;10.09;49.15;95519.84;4973119;28;20737;-69
2022/02/27 09:08:37;;;;;;;16.52;11.98;;;;;;;10.01;48.70;95510.53;4972120;28;20219;-72
2022/02/27 09:11:05;;;;;;;16.75;11.45;;;;;;;10.10;50.27;95516.19;4974200;28;20199;-72
2022/02/27 09:13:32;;;;;;;14.27;10.55;;;;;;;10.00;50.60;95518.59;4972777;28;20223;-67
2022/02/27 09:15:59;;;;;;;14.88;10.80;;;;;;;10.17;49.03;95511.59;4973946;28;20298;-64
2022/02/27 09:18:25;;;;;;;14.27;10.98;;;;;;;10.12;48.76;95512.31;4973572;28;20183;-66
2022/02/27 09:20:53;;;;;;;14.05;10.40;;;;;;;10.41;48.67;95502.56;4973550;28;20203;-71
2022/02/27 09:23:20;;;;;;;14.15;10.55;;;;;;;10.58;47.97;95508.59;4973657;28;20199;-67
2022/02/27 09:25:49;;;;;;;12.07;9.85;;;;;;;10.23;48.53;95508.03;4971759;28;20242;-69
2022/02/27 09:28:36;;;;;;;11.45;9.32;;;;;;;10.11;49.04;95487.16;4972800;28;20192;-70
2022/02/27 09:31:03;;;;;;;12.13;9.73;;;;;;;10.40;48.92;95495.72;4973249;28;20209;-69
2022/02/27 09:33:30;;;;;;;11.55;9.93;;;;;;;10.55;49.00;95497.75;4973096;28;20222;-67
2022/02/27 09:35:57;;;;;;;29.40;21.35;;;;;;;10.48;49.51;95497.13;4972294;28;20238;-67
2022/02/27 09:38:24;;;;;;;13.70;10.35;;;;;;;10.50;48.68;95476.72;4974239;28;20191;-70
2022/02/27 09:40:53;;;;;;;11.88;9.55;;;;;;;10.47;49.51;95504.22;4973158;28;20262;-70
2022/02/27 09:43:20;;;;;;;38.30;28.30;;;;;;;10.38;48.78;95481.28;4973046;28;20203;-73
2022/02/27 09:45:50;;;;;;;15.15;12.07;;;;;;;10.83;48.77;95495.81;4972397;28;20205;-69
2022/02/27 09:48:17;;;;;;;117.55;75.53;;;;;;;11.11;47.48;95495.66;4972893;28;20210;-69
2022/02/27 09:50:47;;;;;;;33.50;22.77;;;;;;;11.10;47.85;95470.47;4972785;28;20955;-72
2022/02/27 09:53:15;;;;;;;86.50;61.13;;;;;;;11.11;48.18;95484.38;4973097;28;20231;-68
2022/02/27 09:55:42;;;;;;;24.60;18.58;;;;;;;10.65;48.95;95488.25;4973124;28;20203;-69
2022/02/27 09:58:09;;;;;;;30.75;18.25;;;;;;;10.61;49.00;95509.91;4974417;28;20200;-67
2022/02/27 10:00:36;;;;;;;10.30;8.40;;;;;;;10.67;47.96;95507.13;4978728;28;20283;-68
2022/02/27 10:03:15;;;;;;;9.73;7.95;;;;;;;10.94;47.93;95502.78;4973580;28;20203;-71
2022/02/27 10:05:46;;;;;;;10.13;8.63;;;;;;;10.86;47.90;95500.56;4965226;28;20278;-70
2022/02/27 10:08:15;;;;;;;9.80;7.78;;;;;;;10.82;49.08;95488.97;4953667;29;20660;-73
2022/02/27 10:10:58;;;;;;;10.30;7.57;;;;;;;10.87;48.36;95470.72;4953818;28;20282;-66
2022/02/27 10:13:52;;;;;;;82.35;48.28;;;;;;;10.96;49.11;95469.25;4954808;28;20227;-70
2022/02/27 10:16:23;;;;;;;21.33;15.10;;;;;;;11.07;48.55;95484.09;4952250;29;20263;-69
2022/02/27 10:18:59;;;;;;;10.60;8.88;;;;;;;10.84;48.78;95480.88;4953392;29;20215;-73
2022/02/27 10:21:30;;;;;;;10.48;8.60;;;;;;;10.62;48.81;95472.22;4952720;29;20204;-73
2022/02/27 10:24:17;;;;;;;11.60;8.95;;;;;;;10.96;48.40;95482.38;4952750;29;20221;-69
2022/02/27 10:26:46;;;;;;;10.25;8.32;;;;;;;10.63;48.63;95479.81;4952951;29;20195;-67
2022/02/27 10:29:15;;;;;;;9.88;8.07;;;;;;;10.85;48.66;95488.50;4953116;29;20184;-67
2022/02/27 10:31:45;;;;;;;12.65;9.57;;;;;;;10.79;48.02;95488.66;4953013;29;20627;-70
2022/02/27 10:34:11;;;;;;;10.27;8.40;;;;;;;10.71;48.41;95492.50;4952625;29;20239;-67
2022/02/27 10:37:08;;;;;;;8.98;7.68;;;;;;;10.83;48.08;95485.34;4952640;29;20286;-69
2022/02/27 10:39:42;;;;;;;9.27;7.72;;;;;;;11.28;47.66;95473.84;4952786;29;20214;-72
2022/02/27 10:42:34;;;;;;;8.90;7.13;;;;;;;11.22;47.55;95468.50;4970567;28;20202;-71
2022/02/27 10:45:05;;;;;;;20.58;17.00;;;;;;;11.41;46.67;95465.56;4935403;29;20211;-72
2022/02/27 10:47:35;;;;;;;51.38;36.60;;;;;;;11.37;47.09;95467.13;4953361;28;20196;-71
2022/02/27 10:50:11;;;;;;;11.30;8.77;;;;;;;11.26;47.41;95462.78;4952081;28;20195;-69
2022/02/27 10:52:46;;;;;;;8.48;7.22;;;;;;;11.09;47.49;95457.59;4961094;28;20697;-72
2022/02/27 10:55:14;;;;;;;7.82;7.00;;;;;;;10.96;47.99;95457.97;4970222;28;20686;-70
2022/02/27 10:57:50;;;;;;;8.30;6.97;;;;;;;10.69;48.01;95463.09;4970530;28;20192;-71
2022/02/27 11:00:34;;;;;;;8.95;7.10;;;;;;;10.44;48.39;95465.38;4967576;28;20210;-70
2022/02/27 11:03:04;;;;;;;10.07;8.18;;;;;;;10.91;47.47;95461.31;4971536;28;20202;-71
2022/02/27 11:05:33;;;;;;;9.07;7.60;;;;;;;10.82;47.12;95449.66;4971341;28;20231;-68
2022/02/27 11:08:03;;;;;;;10.57;8.40;;;;;;;10.33;48.22;95463.66;4969885;28;20202;-70
2022/02/27 11:10:32;;;;;;;9.20;7.43;;;;;;;10.41;48.94;95449.34;4970390;28;20235;-72
2022/02/27 11:13:02;;;;;;;9.80;7.82;;;;;;;10.62;47.41;95440.75;4970405;28;20672;-69
2022/02/27 11:15:29;;;;;;;9.68;8.10;;;;;;;10.63;47.49;95432.66;4969639;28;20239;-69
2022/02/27 11:17:56;;;;;;;11.18;8.60;;;;;;;10.54;48.16;95449.81;4969665;28;20690;-70
2022/02/27 11:20:24;;;;;;;9.77;8.20;;;;;;;10.56;47.27;95426.78;4968565;28;20282;-68
2022/02/27 11:22:53;;;;;;;79.88;49.63;;;;;;;10.43;48.34;95452.53;4970837;28;20262;-68
2022/02/27 11:25:22;;;;;;;33.92;22.88;;;;;;;10.59;47.95;95447.25;4969899;28;20266;-70